createdAt,value
2018-12-10T00:00:09.375Z,96.70
2018-12-10T00:03:20.794Z,96.20
2018-12-10T00:06:26.062Z,96.50
2018-12-10T00:09:29.304Z,96.80
2018-12-10T00:12:32.509Z,96.80
2018-12-10T00:15:35.744Z,96.90
2018-12-10T00:18:39.073Z,97.10
2018-12-10T00:21:42.423Z,96.80
2018-12-10T00:24:45.969Z,96.90
2018-12-10T00:27:49.288Z,96.80
2018-12-10T00:30:52.609Z,96.70
2018-12-10T00:33:55.833Z,96.60
2018-12-10T00:36:59.088Z,96.50
2018-12-10T00:40:02.461Z,96.20
2018-12-10T00:43:05.838Z,96.10
2018-12-10T00:46:09.088Z,96.00
2018-12-10T00:49:12.305Z,96.30
2018-12-10T00:52:15.548Z,95.80
2018-12-10T00:55:18.845Z,95.40
2018-12-10T00:58:22.106Z,95.40
2018-12-10T01:01:25.476Z,95.50
2018-12-10T01:04:28.685Z,95.80
2018-12-10T01:07:31.913Z,95.30
2018-12-10T01:10:35.360Z,95.60
2018-12-10T01:13:38.595Z,95.40
2018-12-10T01:16:42.138Z,95.50
2018-12-10T01:19:45.468Z,95.20
2018-12-10T01:22:48.726Z,95.50
2018-12-10T01:25:51.972Z,95.30
2018-12-10T01:28:55.217Z,95.40
2018-12-10T01:31:58.470Z,95.60
2018-12-10T01:35:01.825Z,96.00
2018-12-10T01:38:05.396Z,96.20
2018-12-10T01:41:08.696Z,96.20
2018-12-10T01:44:12.173Z,96.30
2018-12-10T01:47:15.399Z,96.50
2018-12-10T01:50:18.645Z,96.60
2018-12-10T01:53:21.893Z,96.70
2018-12-10T01:56:25.332Z,96.30
2018-12-10T01:59:28.557Z,96.10
2018-12-10T02:02:31.777Z,96.20
2018-12-10T02:05:35.011Z,95.90
2018-12-10T02:08:38.348Z,96.00
2018-12-10T02:11:41.579Z,95.60
2018-12-10T02:14:44.928Z,95.10
2018-12-10T02:17:48.457Z,95.40
2018-12-10T02:20:51.716Z,95.20
2018-12-10T02:23:54.977Z,95.50
2018-12-10T02:26:58.276Z,95.10
2018-12-10T02:30:01.540Z,94.70
2018-12-10T02:33:05.164Z,94.90
2018-12-10T02:36:08.392Z,94.70
2018-12-10T02:39:11.620Z,94.70
2018-12-10T02:42:14.885Z,94.90
2018-12-10T02:45:18.146Z,95.20
2018-12-10T02:48:21.605Z,95.50
2018-12-10T02:51:25.232Z,95.20
2018-12-10T02:54:28.644Z,95.50
2018-12-10T02:57:31.914Z,95.50
2018-12-10T03:00:35.381Z,95.80
2018-12-10T03:03:38.642Z,95.10
2018-12-10T03:06:41.885Z,95.40
2018-12-10T03:09:45.121Z,96.00
2018-12-10T03:12:48.387Z,96.00
2018-12-10T03:15:51.594Z,95.70
2018-12-10T03:18:55.089Z,95.90
2018-12-10T03:21:58.373Z,95.30
2018-12-10T03:25:01.716Z,95.40
2018-12-10T03:28:05.348Z,94.90
2018-12-10T03:31:11.532Z,95.20
2018-12-10T03:34:15.028Z,94.90
2018-12-10T03:37:18.510Z,95.00
2018-12-10T03:40:21.754Z,94.90
2018-12-10T03:43:25.003Z,95.00
2018-12-10T03:46:28.259Z,95.20
2018-12-10T03:49:31.510Z,95.50
2018-12-10T03:52:34.730Z,95.50
2018-12-10T03:55:38.005Z,95.60
2018-12-10T03:58:41.319Z,95.70
2018-12-10T04:01:44.583Z,96.20
2018-12-10T04:04:48.039Z,96.10
2018-12-10T04:07:51.511Z,96.70
2018-12-10T04:10:54.768Z,96.80
2018-12-10T04:13:57.998Z,96.80
2018-12-10T04:17:01.237Z,96.60
2018-12-10T04:20:05.179Z,97.20
2018-12-10T04:23:09.466Z,96.80
2018-12-10T04:26:14.704Z,97.00
2018-12-10T04:29:18.005Z,96.90
2018-12-10T04:32:21.249Z,96.90
2018-12-10T04:35:24.535Z,96.90
2018-12-10T04:38:28.021Z,96.40
2018-12-10T04:41:31.255Z,96.30
2018-12-10T04:44:34.636Z,96.40
2018-12-10T04:47:38.018Z,96.40
2018-12-10T04:50:44.272Z,96.50
2018-12-10T04:53:47.521Z,97.50
2018-12-10T04:56:50.799Z,97.20
2018-12-10T04:59:54.324Z,97.60
2018-12-10T05:02:57.654Z,97.40
2018-12-10T05:06:00.961Z,97.60
2018-12-10T05:09:06.482Z,97.80
2018-12-10T05:12:10.716Z,97.90
2018-12-10T05:15:14.064Z,97.70
2018-12-10T05:18:17.324Z,97.90
2018-12-10T05:21:20.556Z,98.50
2018-12-10T05:24:23.823Z,98.60
2018-12-10T05:27:27.140Z,98.70
2018-12-10T05:30:30.582Z,98.60
2018-12-10T05:33:33.833Z,98.80
2018-12-10T05:36:37.121Z,98.70
2018-12-10T05:39:41.579Z,98.30
2018-12-10T05:42:44.997Z,98.10
2018-12-10T05:45:48.394Z,97.80
2018-12-10T05:48:51.674Z,97.90
2018-12-10T05:51:54.936Z,97.50
2018-12-10T05:54:58.208Z,97.50
2018-12-10T05:58:01.532Z,97.60
2018-12-10T06:01:04.849Z,97.50
2018-12-10T06:04:08.137Z,97.20
2018-12-10T06:07:11.721Z,96.90
2018-12-10T06:10:15.011Z,97.10
2018-12-10T06:13:19.361Z,96.90
2018-12-10T06:16:22.702Z,96.70
2018-12-10T06:19:25.941Z,97.00
2018-12-10T06:22:29.212Z,97.10
2018-12-10T06:25:32.509Z,97.60
2018-12-10T06:28:35.758Z,97.90
2018-12-10T06:31:39.028Z,98.00
2018-12-10T06:34:42.283Z,98.40
2018-12-10T06:37:45.549Z,99.00
2018-12-10T06:40:48.797Z,99.00
2018-12-10T06:43:52.012Z,99.10
2018-12-10T06:46:55.485Z,99.30
2018-12-10T06:49:58.804Z,99.50
2018-12-10T06:53:02.059Z,99.50
2018-12-10T06:56:05.342Z,99.60
2018-12-10T06:59:08.689Z,99.40
2018-12-10T07:02:12.194Z,99.70
2018-12-10T07:05:15.459Z,99.90
2018-12-10T07:08:18.844Z,99.90
2018-12-10T07:11:22.064Z,99.90
2018-12-10T07:14:25.320Z,99.90
2018-12-10T07:17:28.594Z,99.90
2018-12-10T07:20:31.833Z,99.90
2018-12-10T07:23:35.096Z,99.90
2018-12-10T07:26:38.346Z,99.90
2018-12-10T07:29:41.760Z,99.90
2018-12-10T07:32:45.445Z,99.90
2018-12-10T07:35:48.784Z,99.90
2018-12-10T07:38:52.101Z,99.90
2018-12-10T07:41:55.363Z,99.90
2018-12-10T07:44:58.716Z,99.90
2018-12-10T07:48:01.965Z,99.90
2018-12-10T07:51:05.255Z,99.90
2018-12-10T07:54:08.502Z,99.90
2018-12-10T07:57:11.844Z,99.90
2018-12-10T08:00:15.142Z,99.90
2018-12-10T08:03:18.417Z,99.90
2018-12-10T08:06:21.632Z,99.90
2018-12-10T08:09:24.899Z,99.90
2018-12-10T08:12:28.161Z,99.90
2018-12-10T08:15:31.465Z,99.90
2018-12-10T08:18:35.744Z,99.90
2018-12-10T08:21:38.997Z,99.90
2018-12-10T08:24:42.566Z,99.90
2018-12-10T08:27:45.948Z,99.90
2018-12-10T08:30:49.337Z,99.60
2018-12-10T08:33:52.993Z,99.90
2018-12-10T08:36:56.214Z,99.80
2018-12-10T08:39:59.473Z,99.10
2018-12-10T08:43:04.700Z,99.50
2018-12-10T08:46:07.956Z,99.10
2018-12-10T08:49:11.321Z,99.20
2018-12-10T08:52:14.569Z,99.20
2018-12-10T08:55:18.019Z,98.80
2018-12-10T08:58:21.365Z,99.30
2018-12-10T09:01:24.637Z,98.70
2018-12-10T09:04:27.965Z,99.00
2018-12-10T09:07:31.221Z,98.80
2018-12-10T09:10:34.828Z,98.70
2018-12-10T09:13:38.268Z,98.40
2018-12-10T09:16:41.597Z,98.70
2018-12-10T09:19:44.832Z,98.10
2018-12-10T09:22:48.213Z,98.10
2018-12-10T09:25:51.456Z,98.40
2018-12-10T09:28:54.708Z,98.20
2018-12-10T09:31:57.953Z,98.10
2018-12-10T09:35:01.221Z,98.60
2018-12-10T09:38:04.525Z,97.80
2018-12-10T09:41:07.763Z,97.70
2018-12-10T09:44:11.165Z,97.70
2018-12-10T09:47:14.404Z,98.20
2018-12-10T09:50:17.661Z,98.70
2018-12-10T09:53:21.224Z,99.30
2018-12-10T09:56:24.492Z,98.70
2018-12-10T09:59:27.846Z,99.10
2018-12-10T10:02:31.065Z,99.20
2018-12-10T10:05:34.362Z,98.70
2018-12-10T10:08:37.721Z,98.80
2018-12-10T10:11:40.981Z,98.50
2018-12-10T10:14:44.228Z,98.90
2018-12-10T10:17:47.453Z,99.10
2018-12-10T10:20:50.704Z,99.00
2018-12-10T10:23:53.916Z,98.60
2018-12-10T10:26:57.161Z,99.50
2018-12-10T10:30:00.385Z,98.30
2018-12-10T10:33:04.118Z,98.40
2018-12-10T10:36:07.400Z,98.50
2018-12-10T10:39:10.684Z,98.70
2018-12-10T10:42:13.928Z,98.90
2018-12-10T10:45:17.192Z,98.40
2018-12-10T10:48:20.768Z,98.60
2018-12-10T10:51:24.025Z,98.50
2018-12-10T10:54:27.256Z,99.10
2018-12-10T10:57:31.495Z,98.50
2018-12-10T11:00:41.642Z,98.80
2018-12-10T11:03:44.916Z,98.90
2018-12-10T11:06:48.916Z,98.70
2018-12-10T11:09:52.152Z,98.60
2018-12-10T11:12:55.419Z,98.90
2018-12-10T11:15:58.709Z,97.80
2018-12-10T11:19:02.114Z,97.50
2018-12-10T11:22:05.529Z,97.00
2018-12-10T11:25:09.163Z,97.60
2018-12-10T11:28:12.654Z,97.60
2018-12-10T11:31:17.246Z,97.60
2018-12-10T11:34:20.957Z,97.20
2018-12-10T11:37:24.256Z,97.30
2018-12-10T11:40:27.552Z,97.30
2018-12-10T11:43:30.962Z,97.40
2018-12-10T11:46:34.281Z,97.00
2018-12-10T11:49:37.589Z,97.30
2018-12-10T11:52:40.828Z,97.00
2018-12-10T11:55:44.222Z,96.50
2018-12-10T11:58:47.491Z,96.50
2018-12-10T12:01:50.732Z,97.20
2018-12-10T12:04:53.963Z,96.60
2018-12-10T12:07:59.233Z,97.00
2018-12-10T12:11:02.501Z,96.40
2018-12-10T12:14:06.042Z,96.20
2018-12-10T12:17:09.289Z,96.20
2018-12-10T12:20:12.697Z,96.20
2018-12-10T12:23:16.081Z,96.90
2018-12-10T12:26:19.365Z,97.60
2018-12-10T12:29:22.640Z,98.10
2018-12-10T12:32:25.873Z,98.10
2018-12-10T12:35:29.394Z,98.10
2018-12-10T12:38:33.550Z,98.00
2018-12-10T12:41:37.377Z,98.60
2018-12-10T12:44:40.617Z,97.80
2018-12-10T12:47:43.860Z,97.00
2018-12-10T12:50:47.080Z,99.90
2018-12-10T12:53:50.325Z,96.70
2018-12-10T12:56:53.693Z,96.90
2018-12-10T12:59:56.981Z,97.70
2018-12-10T13:03:00.359Z,98.20
2018-12-10T13:06:07.009Z,99.40
2018-12-10T13:09:09.328Z,99.90
2018-12-10T13:12:12.685Z,99.60
2018-12-10T13:15:15.971Z,99.90
2018-12-10T13:18:19.227Z,99.40
2018-12-10T13:21:22.470Z,99.50
2018-12-10T13:24:25.731Z,99.20
2018-12-10T13:27:29.069Z,99.20
2018-12-10T13:30:32.426Z,98.80
2018-12-10T13:33:35.781Z,98.80
2018-12-10T13:36:39.016Z,97.80
2018-12-10T13:39:42.844Z,97.90
2018-12-10T13:42:46.088Z,97.40
2018-12-10T13:45:49.374Z,97.30
2018-12-10T13:48:52.684Z,97.70
2018-12-10T13:51:55.918Z,97.30
2018-12-10T13:54:59.193Z,97.00
2018-12-10T13:58:02.734Z,97.30
2018-12-10T14:01:06.181Z,97.00
2018-12-10T14:04:13.713Z,96.80
2018-12-10T14:07:17.020Z,96.40
2018-12-10T14:10:20.373Z,96.30
2018-12-10T14:13:23.588Z,96.10
2018-12-10T14:16:26.838Z,95.50
2018-12-10T14:19:30.196Z,95.00
2018-12-10T14:22:33.607Z,95.70
2018-12-10T14:25:36.865Z,95.80
2018-12-10T14:28:40.128Z,94.90
2018-12-10T14:31:43.365Z,99.60
2018-12-10T14:34:46.608Z,92.90
2018-12-10T14:37:49.903Z,73.70
2018-12-10T14:40:53.177Z,76.30
2018-12-10T14:43:56.429Z,88.60
2018-12-10T14:46:59.756Z,91.60
2018-12-10T14:50:04.422Z,94.00
2018-12-10T14:53:08.813Z,96.00
2018-12-10T14:56:13.125Z,94.80
2018-12-10T14:59:16.388Z,95.50
2018-12-10T15:02:19.640Z,95.60
2018-12-10T15:05:22.928Z,95.80
2018-12-10T15:08:26.214Z,96.10
2018-12-10T15:11:29.774Z,95.90
2018-12-10T15:14:33.084Z,96.10
2018-12-10T15:17:36.615Z,95.90
2018-12-10T15:20:39.921Z,95.70
2018-12-10T15:23:43.185Z,95.50
2018-12-10T15:26:46.420Z,96.00
2018-12-10T15:29:49.664Z,96.40
2018-12-10T15:32:52.909Z,96.40
2018-12-10T15:35:56.268Z,95.80
2018-12-10T15:38:59.496Z,95.20
2018-12-10T15:42:02.844Z,95.30
2018-12-10T15:45:07.472Z,95.50
2018-12-10T15:48:10.801Z,95.70
2018-12-10T15:51:14.049Z,96.00
2018-12-10T15:54:17.398Z,96.50
2018-12-10T15:57:20.690Z,96.70
2018-12-10T16:00:24.070Z,97.00
2018-12-10T16:03:27.488Z,96.70
2018-12-10T16:06:30.748Z,96.70
2018-12-10T16:09:34.034Z,96.70
2018-12-10T16:12:37.436Z,96.70
2018-12-10T16:15:40.695Z,96.70
2018-12-10T16:18:43.945Z,96.60
2018-12-10T16:21:53.836Z,96.60
2018-12-10T16:24:57.093Z,96.70
2018-12-10T16:28:00.353Z,96.60
2018-12-10T16:31:03.759Z,96.20
2018-12-10T16:34:07.143Z,95.70
2018-12-10T16:37:10.375Z,96.30
2018-12-10T16:40:13.645Z,96.20
2018-12-10T16:43:17.032Z,96.10
2018-12-10T16:46:20.305Z,96.20
2018-12-10T16:49:23.545Z,95.70
2018-12-10T16:52:26.797Z,95.60
2018-12-10T16:55:36.718Z,95.60
2018-12-10T16:58:40.097Z,95.40
2018-12-10T17:01:43.623Z,95.90
2018-12-10T17:04:46.856Z,95.10
2018-12-10T17:07:50.440Z,95.20
2018-12-10T17:10:53.856Z,95.40
2018-12-10T17:13:57.344Z,95.10
2018-12-10T17:17:00.601Z,95.50
2018-12-10T17:20:05.666Z,94.70
2018-12-10T17:23:08.921Z,95.40
2018-12-10T17:26:12.173Z,95.60
2018-12-10T17:29:15.469Z,95.60
2018-12-10T17:32:18.722Z,96.10
2018-12-10T17:35:21.965Z,95.80
2018-12-10T17:38:25.196Z,95.20
2018-12-10T17:41:28.472Z,95.90
2018-12-10T17:44:31.838Z,95.70
2018-12-10T17:47:35.150Z,95.20
2018-12-10T17:50:38.566Z,95.60
2018-12-10T17:53:42.385Z,95.60
2018-12-10T17:56:45.812Z,95.60
2018-12-10T17:59:49.297Z,95.40
2018-12-10T18:02:52.565Z,94.90
2018-12-10T18:05:55.819Z,95.30
2018-12-10T18:08:59.069Z,95.30
2018-12-10T18:12:02.346Z,95.20
2018-12-10T18:15:07.129Z,95.10
2018-12-10T18:18:10.613Z,95.20
2018-12-10T18:21:13.949Z,95.10
2018-12-10T18:24:17.332Z,95.60
2018-12-10T18:27:20.565Z,95.70
2018-12-10T18:30:23.833Z,94.80
2018-12-10T18:33:27.466Z,95.60
2018-12-10T18:36:30.785Z,94.90
2018-12-10T18:39:34.021Z,95.30
2018-12-10T18:42:37.264Z,94.80
2018-12-10T18:45:40.545Z,95.20
2018-12-10T18:48:43.833Z,95.20
2018-12-10T18:51:47.123Z,95.30
2018-12-10T18:54:50.445Z,95.00
2018-12-10T18:57:53.729Z,94.70
2018-12-10T19:00:56.976Z,94.50
2018-12-10T19:04:00.233Z,95.10
2018-12-10T19:07:03.576Z,95.00
2018-12-10T19:10:08.801Z,94.90
2018-12-10T19:13:12.137Z,94.60
2018-12-10T19:16:15.670Z,95.00
2018-12-10T19:19:18.898Z,95.10
2018-12-10T19:22:22.388Z,94.70
2018-12-10T19:25:25.854Z,95.30
2018-12-10T19:28:29.080Z,95.50
2018-12-10T19:31:32.334Z,95.50
2018-12-10T19:34:35.557Z,95.20
2018-12-10T19:37:38.818Z,95.60
2018-12-10T19:40:42.098Z,95.70
2018-12-10T19:43:45.356Z,95.60
2018-12-10T19:46:48.629Z,95.50
2018-12-10T19:49:51.883Z,95.80
2018-12-10T19:52:55.196Z,95.80
2018-12-10T19:55:58.493Z,95.70
2018-12-10T19:59:01.823Z,95.90
2018-12-10T20:02:05.467Z,95.50
2018-12-10T20:05:09.811Z,95.70
2018-12-10T20:08:14.555Z,95.80
2018-12-10T20:11:17.942Z,95.90
2018-12-10T20:14:21.344Z,96.10
2018-12-10T20:17:25.435Z,96.00
2018-12-10T20:20:29.007Z,95.80
2018-12-10T20:23:32.349Z,95.90
2018-12-10T20:26:35.649Z,95.70
2018-12-10T20:29:39.037Z,95.70
2018-12-10T20:32:42.672Z,95.80
2018-12-10T20:35:47.159Z,96.00
2018-12-10T20:38:50.486Z,96.30
2018-12-10T20:41:54.060Z,96.40
2018-12-10T20:44:57.332Z,96.00
2018-12-10T20:48:01.277Z,96.10
2018-12-10T20:51:04.554Z,96.40
2018-12-10T20:54:08.163Z,96.40
2018-12-10T20:57:11.477Z,96.60
2018-12-10T21:00:15.051Z,96.40
2018-12-10T21:03:18.336Z,96.10
2018-12-10T21:06:27.341Z,96.50
2018-12-10T21:09:30.656Z,96.10
2018-12-10T21:12:33.905Z,96.40
2018-12-10T21:15:37.400Z,96.30
2018-12-10T21:18:40.709Z,96.40
2018-12-10T21:21:43.945Z,96.40
2018-12-10T21:24:47.414Z,96.50
2018-12-10T21:27:50.668Z,96.20
2018-12-10T21:30:53.953Z,96.80
2018-12-10T21:33:57.165Z,96.80
2018-12-10T21:37:00.429Z,96.10
2018-12-10T21:40:04.105Z,96.30
2018-12-10T21:43:07.485Z,96.80
2018-12-10T21:46:11.596Z,96.90
2018-12-10T21:49:16.502Z,96.80
2018-12-10T21:52:19.914Z,96.80
2018-12-10T21:55:23.433Z,96.80
2018-12-10T21:58:26.899Z,97.30
2018-12-10T22:01:30.290Z,97.00
2018-12-10T22:04:33.592Z,97.30
2018-12-10T22:07:36.884Z,97.60
2018-12-10T22:10:40.141Z,97.50
2018-12-10T22:13:43.372Z,97.50
2018-12-10T22:16:46.649Z,97.50
2018-12-10T22:19:50.021Z,97.70
2018-12-10T22:22:53.287Z,98.10
2018-12-10T22:25:56.517Z,98.40
2018-12-10T22:28:59.768Z,98.80
2018-12-10T22:32:03.045Z,98.60
2018-12-10T22:35:06.645Z,98.80
2018-12-10T22:38:10.004Z,98.80
2018-12-10T22:41:13.215Z,98.80
2018-12-10T22:44:16.462Z,98.90
2018-12-10T22:47:19.700Z,99.00
2018-12-10T22:50:22.966Z,98.90
2018-12-10T22:53:26.273Z,99.10
2018-12-10T22:56:29.500Z,99.30
2018-12-10T22:59:32.793Z,99.50
2018-12-10T23:02:36.024Z,99.10
2018-12-10T23:05:39.405Z,99.10
2018-12-10T23:08:44.709Z,98.90
2018-12-10T23:11:47.968Z,98.90
2018-12-10T23:14:51.256Z,99.10
2018-12-10T23:17:54.485Z,99.10
2018-12-10T23:20:59.336Z,99.00
2018-12-10T23:24:03.466Z,99.00
2018-12-10T23:27:06.852Z,98.60
2018-12-10T23:30:10.289Z,99.10
2018-12-10T23:33:13.560Z,99.30
2018-12-10T23:36:16.892Z,99.50
2018-12-10T23:39:20.161Z,99.80
2018-12-10T23:42:23.477Z,99.70
2018-12-10T23:45:26.728Z,99.30
2018-12-10T23:48:29.977Z,99.30
2018-12-10T23:51:33.259Z,99.40
2018-12-10T23:54:36.508Z,98.90
2018-12-10T23:57:39.770Z,99.40
